createdAt,value
2019-06-01T00:01:09.642Z,99.90
2019-06-01T00:03:40.772Z,99.90
2019-06-01T00:06:10.269Z,99.90
2019-06-01T00:08:40.242Z,99.90
2019-06-01T00:11:11.996Z,99.90
2019-06-01T00:13:41.583Z,99.90
2019-06-01T00:16:11.218Z,99.90
2019-06-01T00:18:41.807Z,99.90
2019-06-01T00:21:11.439Z,99.90
2019-06-01T00:23:42.355Z,99.90
2019-06-01T00:26:12.044Z,99.90
2019-06-01T00:28:41.745Z,99.90
2019-06-01T00:31:11.393Z,99.90
2019-06-01T00:33:41.163Z,99.90
2019-06-01T00:36:10.846Z,99.90
2019-06-01T00:38:41.614Z,99.90
2019-06-01T00:41:11.349Z,99.90
2019-06-01T00:43:42.141Z,99.90
2019-06-01T00:46:11.761Z,99.90
2019-06-01T00:48:41.253Z,99.90
2019-06-01T00:51:10.646Z,99.90
2019-06-01T00:53:40.108Z,99.90
2019-06-01T00:56:09.648Z,99.90
2019-06-01T00:58:39.152Z,99.90
2019-06-01T01:01:08.687Z,99.90
2019-06-01T01:03:38.217Z,99.90
2019-06-01T01:06:07.755Z,99.90
2019-06-01T01:08:37.183Z,99.90
2019-06-01T01:11:06.683Z,99.90
2019-06-01T01:13:36.149Z,99.90
2019-06-01T01:16:05.746Z,99.90
2019-06-01T01:18:35.284Z,99.90
2019-06-01T01:21:05.886Z,99.90
2019-06-01T01:23:35.310Z,99.90
2019-06-01T01:26:05.199Z,99.90
2019-06-01T01:28:34.660Z,99.90
2019-06-01T01:31:13.358Z,99.90
2019-06-01T01:33:35.495Z,99.90
2019-06-01T01:36:05.746Z,99.90
2019-06-01T01:38:36.398Z,99.90
2019-06-01T01:41:05.976Z,99.90
2019-06-01T01:43:35.424Z,99.90
2019-06-01T01:46:05.474Z,99.90
2019-06-01T01:48:36.070Z,99.90
2019-06-01T01:51:05.651Z,99.90
2019-06-01T01:53:35.040Z,99.90
2019-06-01T01:56:04.895Z,99.90
2019-06-01T01:58:34.383Z,99.90
2019-06-01T02:01:20.521Z,99.90
2019-06-01T02:03:35.326Z,99.90
2019-06-01T02:06:05.024Z,99.90
2019-06-01T02:08:34.598Z,99.90
2019-06-01T02:11:04.209Z,99.90
2019-06-01T02:13:33.680Z,99.90
2019-06-01T02:16:03.130Z,99.90
2019-06-01T02:18:32.647Z,99.90
2019-06-01T02:21:02.712Z,99.90
2019-06-01T02:23:32.417Z,99.90
2019-06-01T02:26:03.161Z,99.90
2019-06-01T02:28:32.980Z,99.90
2019-06-01T02:31:04.075Z,99.90
2019-06-01T02:33:33.857Z,99.90
2019-06-01T02:36:05.035Z,99.90
2019-06-01T02:38:34.629Z,99.90
2019-06-01T02:41:05.661Z,99.90
2019-06-01T02:43:35.691Z,99.90
2019-06-01T02:46:07.487Z,99.90
2019-06-01T02:48:36.584Z,99.90
2019-06-01T02:51:06.414Z,99.90
2019-06-01T02:53:35.899Z,99.90
2019-06-01T02:56:06.225Z,99.90
2019-06-01T02:58:35.857Z,99.90
2019-06-01T03:01:07.025Z,99.90
2019-06-01T03:03:36.697Z,99.90
2019-06-01T03:06:08.339Z,99.90
2019-06-01T03:08:39.248Z,99.90
2019-06-01T03:11:11.618Z,99.90
2019-06-01T03:13:44.304Z,99.90
2019-06-01T03:16:15.737Z,99.90
2019-06-01T03:18:45.994Z,99.90
2019-06-01T03:21:18.978Z,99.90
2019-06-01T03:23:49.383Z,99.90
2019-06-01T03:26:20.978Z,99.90
2019-06-01T03:28:52.353Z,99.90
2019-06-01T03:31:21.981Z,99.90
2019-06-01T03:33:51.378Z,99.90
2019-06-01T03:36:20.920Z,99.90
2019-06-01T03:38:50.647Z,99.90
2019-06-01T03:41:20.671Z,99.90
2019-06-01T03:43:50.199Z,99.90
2019-06-01T03:46:19.797Z,99.90
2019-06-01T03:48:49.278Z,99.90
2019-06-01T03:51:18.820Z,99.90
2019-06-01T03:53:48.276Z,99.90
2019-06-01T03:56:17.900Z,99.90
2019-06-01T03:58:47.450Z,99.90
2019-06-01T04:01:17.022Z,99.90
2019-06-01T04:03:46.517Z,99.90
2019-06-01T04:06:17.266Z,99.90
2019-06-01T04:08:46.740Z,99.90
2019-06-01T04:11:16.278Z,99.90
2019-06-01T04:13:45.914Z,99.90
2019-06-01T04:16:15.415Z,99.90
2019-06-01T04:18:44.923Z,99.90
2019-06-01T04:21:14.394Z,99.90
2019-06-01T04:23:44.024Z,99.90
2019-06-01T04:26:13.634Z,99.90
2019-06-01T04:28:44.179Z,99.90
2019-06-01T04:31:13.676Z,99.90
2019-06-01T04:33:43.149Z,99.90
2019-06-01T04:36:13.365Z,99.90
2019-06-01T04:38:42.976Z,99.90
2019-06-01T04:41:14.159Z,99.90
2019-06-01T04:43:43.777Z,99.90
2019-06-01T04:46:14.376Z,99.90
2019-06-01T04:48:45.178Z,99.90
2019-06-01T04:51:14.953Z,99.90
2019-06-01T04:53:44.802Z,99.90
2019-06-01T04:56:15.242Z,99.90
2019-06-01T04:58:46.048Z,99.90
2019-06-01T05:01:16.698Z,99.90
2019-06-01T05:03:46.220Z,99.90
2019-06-01T05:06:15.792Z,99.90
2019-06-01T05:08:48.304Z,99.90
2019-06-01T05:11:17.940Z,99.90
2019-06-01T05:13:47.655Z,99.90
2019-06-01T05:16:17.265Z,99.90
2019-06-01T05:18:46.811Z,99.90
2019-06-01T05:21:16.864Z,99.90
2019-06-01T05:23:46.378Z,99.90
2019-06-01T05:26:17.049Z,99.90
2019-06-01T05:28:47.891Z,99.90
2019-06-01T05:31:24.525Z,99.90
2019-06-01T05:33:48.907Z,99.90
2019-06-01T05:36:18.439Z,99.90
2019-06-01T05:38:47.852Z,99.90
2019-06-01T05:41:19.785Z,99.90
2019-06-01T05:43:48.788Z,99.90
2019-06-01T05:46:18.674Z,99.90
2019-06-01T05:48:48.180Z,99.90
2019-06-01T05:51:20.148Z,99.90
2019-06-01T05:53:49.765Z,99.90
2019-06-01T05:56:20.297Z,99.90
2019-06-01T05:58:50.024Z,99.90
2019-06-01T06:01:19.798Z,99.90
2019-06-01T06:03:49.366Z,99.90
2019-06-01T06:06:23.256Z,99.90
2019-06-01T06:08:52.910Z,99.90
2019-06-01T06:11:23.614Z,99.90
2019-06-01T06:13:53.303Z,99.90
2019-06-01T06:16:22.935Z,99.90
2019-06-01T06:18:52.365Z,99.90
2019-06-01T06:21:22.432Z,99.90
2019-06-01T06:23:52.097Z,99.90
2019-06-01T06:26:22.653Z,99.90
2019-06-01T06:28:52.385Z,99.90
2019-06-01T06:31:23.181Z,99.90
2019-06-01T06:33:56.554Z,99.90
2019-06-01T06:36:24.195Z,99.90
2019-06-01T06:38:53.701Z,99.90
2019-06-01T06:41:24.359Z,99.90
2019-06-01T06:43:53.983Z,99.90
2019-06-01T06:46:23.500Z,99.90
2019-06-01T06:48:53.040Z,99.90
2019-06-01T06:51:23.353Z,99.90
2019-06-01T06:53:52.759Z,99.90
2019-06-01T06:56:22.134Z,99.90
2019-06-01T06:58:51.536Z,99.90
2019-06-01T07:01:20.937Z,99.90
2019-06-01T07:03:50.350Z,99.90
2019-06-01T07:06:19.768Z,99.90
2019-06-01T07:08:49.198Z,99.90
2019-06-01T07:11:19.161Z,99.90
2019-06-01T07:13:48.745Z,99.90
2019-06-01T07:16:19.371Z,99.90
2019-06-01T07:18:48.880Z,99.90
2019-06-01T07:21:19.474Z,99.90
2019-06-01T07:23:49.053Z,99.90
2019-06-01T07:26:18.451Z,99.90
2019-06-01T07:28:47.805Z,99.90
2019-06-01T07:31:17.176Z,99.90
2019-06-01T07:33:46.769Z,99.90
2019-06-01T07:36:16.375Z,99.90
2019-06-01T07:38:46.907Z,99.90
2019-06-01T07:41:16.395Z,99.90
2019-06-01T07:43:45.753Z,99.90
2019-06-01T07:46:15.454Z,99.90
2019-06-01T07:48:44.902Z,99.90
2019-06-01T07:51:14.456Z,99.90
2019-06-01T07:53:43.901Z,99.90
2019-06-01T07:56:13.305Z,99.90
2019-06-01T07:58:42.746Z,99.90
2019-06-01T08:01:12.140Z,99.90
2019-06-01T08:03:41.723Z,99.90
2019-06-01T08:06:11.172Z,99.90
2019-06-01T08:08:40.614Z,99.90
2019-06-01T08:11:11.328Z,99.90
2019-06-01T08:13:40.762Z,99.90
2019-06-01T08:16:10.234Z,99.90
2019-06-01T08:18:39.777Z,99.90
2019-06-01T08:21:09.204Z,99.90
2019-06-01T08:23:38.599Z,99.90
2019-06-01T08:26:08.032Z,99.90
2019-06-01T08:28:37.425Z,99.90
2019-06-01T08:31:06.917Z,99.90
2019-06-01T08:33:36.365Z,99.90
2019-06-01T08:36:05.867Z,99.90
2019-06-01T08:38:35.311Z,99.90
2019-06-01T08:41:04.708Z,99.90
2019-06-01T08:43:34.163Z,99.90
2019-06-01T08:46:03.595Z,99.90
2019-06-01T08:48:34.049Z,99.90
2019-06-01T08:51:03.754Z,99.90
2019-06-01T08:53:34.350Z,99.90
2019-06-01T08:56:03.891Z,99.90
2019-06-01T08:58:35.232Z,99.90
2019-06-01T09:01:04.852Z,99.90
2019-06-01T09:03:39.932Z,99.90
2019-06-01T09:06:05.445Z,99.90
2019-06-01T09:08:35.207Z,99.90
2019-06-01T09:11:05.337Z,99.90
2019-06-01T09:13:35.891Z,99.90
2019-06-01T09:16:06.100Z,99.90
2019-06-01T09:18:35.927Z,99.90
2019-06-01T09:21:05.707Z,99.90
2019-06-01T09:23:37.175Z,99.90
2019-06-01T09:26:07.993Z,99.90
2019-06-01T09:28:37.533Z,99.90
2019-06-01T09:31:07.099Z,99.90
2019-06-01T09:33:36.990Z,99.90
2019-06-01T09:36:06.724Z,99.90
2019-06-01T09:38:37.780Z,99.90
2019-06-01T09:41:07.336Z,99.90
2019-06-01T09:43:37.240Z,99.90
2019-06-01T09:46:06.863Z,99.90
2019-06-01T09:48:37.733Z,99.90
2019-06-01T09:51:07.449Z,99.90
2019-06-01T09:53:38.082Z,99.90
2019-06-01T09:56:07.876Z,99.90
2019-06-01T09:58:38.747Z,99.90
2019-06-01T10:01:08.499Z,99.90
2019-06-01T10:03:38.601Z,99.90
2019-06-01T10:06:08.433Z,99.90
2019-06-01T10:08:38.225Z,99.90
2019-06-01T10:11:07.781Z,99.90
2019-06-01T10:13:38.392Z,99.90
2019-06-01T10:16:08.042Z,99.90
2019-06-01T10:18:38.834Z,99.90
2019-06-01T10:21:08.514Z,99.90
2019-06-01T10:23:38.551Z,99.90
2019-06-01T10:26:08.398Z,99.90
2019-06-01T10:28:37.933Z,99.90
2019-06-01T10:31:07.433Z,99.90
2019-06-01T10:33:37.428Z,98.60
2019-06-01T10:36:19.790Z,99.90
2019-06-01T10:38:39.380Z,99.90
2019-06-01T10:41:09.085Z,99.90
2019-06-01T10:43:39.748Z,99.90
2019-06-01T10:46:09.509Z,99.90
2019-06-01T10:48:40.702Z,99.90
2019-06-01T10:51:10.181Z,99.90
2019-06-01T10:53:41.197Z,99.90
2019-06-01T10:56:10.859Z,96.60
2019-06-01T10:58:58.796Z,97.90
2019-06-01T11:01:12.697Z,99.90
2019-06-01T11:03:42.880Z,99.90
2019-06-01T11:06:12.450Z,99.90
2019-06-01T11:08:43.057Z,99.90
2019-06-01T11:11:12.883Z,95.60
2019-06-01T11:13:43.276Z,96.70
2019-06-01T11:16:12.825Z,98.70
2019-06-01T11:18:43.621Z,97.80
2019-06-01T11:21:13.419Z,97.20
2019-06-01T11:23:46.148Z,99.90
2019-06-01T11:26:13.915Z,99.90
2019-06-01T11:28:44.392Z,99.50
2019-06-01T11:31:14.921Z,96.20
2019-06-01T11:33:44.676Z,94.40
2019-06-01T11:36:14.136Z,93.60
2019-06-01T11:38:44.806Z,95.90
2019-06-01T11:41:18.307Z,93.70
2019-06-01T11:43:46.185Z,95.70
2019-06-01T11:46:15.728Z,95.00
2019-06-01T11:48:45.459Z,95.90
2019-06-01T11:51:14.917Z,92.60
2019-06-01T11:53:45.634Z,94.10
2019-06-01T11:56:16.448Z,94.40
2019-06-01T11:58:45.817Z,93.90
2019-06-01T12:01:15.194Z,91.70
2019-06-01T12:03:44.575Z,95.20
2019-06-01T12:06:14.426Z,99.50
2019-06-01T12:08:44.045Z,92.00
2019-06-01T12:11:13.644Z,90.00
2019-06-01T12:13:44.315Z,83.30
2019-06-01T12:16:14.116Z,84.40
2019-06-01T12:18:44.657Z,84.70
2019-06-01T12:21:14.240Z,91.00
2019-06-01T12:23:43.792Z,90.20
2019-06-01T12:26:13.404Z,87.00
2019-06-01T12:28:43.794Z,92.90
2019-06-01T12:31:13.567Z,87.30
2019-06-01T12:33:44.147Z,81.90
2019-06-01T12:36:13.861Z,90.40
2019-06-01T12:38:48.413Z,78.80
2019-06-01T12:41:18.086Z,80.40
2019-06-01T12:43:49.319Z,72.90
2019-06-01T12:46:18.667Z,80.60
2019-06-01T12:48:48.448Z,83.30
2019-06-01T12:51:17.879Z,81.80
2019-06-01T12:53:48.542Z,85.40
2019-06-01T12:56:18.047Z,88.10
2019-06-01T12:58:48.223Z,91.20
2019-06-01T13:01:17.771Z,91.50
2019-06-01T13:03:47.527Z,84.50
2019-06-01T13:06:17.138Z,79.90
2019-06-01T13:08:47.511Z,80.40
2019-06-01T13:11:16.926Z,78.10
2019-06-01T13:13:47.294Z,81.70
2019-06-01T13:16:16.944Z,81.70
2019-06-01T13:18:47.236Z,82.50
2019-06-01T13:21:16.705Z,82.30
2019-06-01T13:23:47.497Z,80.30
2019-06-01T13:26:17.197Z,79.00
2019-06-01T13:28:46.664Z,83.10
2019-06-01T13:31:16.079Z,78.30
2019-06-01T13:33:46.472Z,76.50
2019-06-01T13:36:15.910Z,80.50
2019-06-01T13:38:45.268Z,77.60
2019-06-01T13:41:14.760Z,84.80
2019-06-01T13:43:45.245Z,88.20
2019-06-01T13:46:14.720Z,79.20
2019-06-01T13:48:45.504Z,75.00
2019-06-01T13:51:15.161Z,73.30
2019-06-01T13:53:44.701Z,76.50
2019-06-01T13:56:15.258Z,78.80
2019-06-01T13:58:44.739Z,80.20
2019-06-01T14:01:15.377Z,79.90
2019-06-01T14:03:45.076Z,82.10
2019-06-01T14:06:14.536Z,83.20
2019-06-01T14:08:44.982Z,80.90
2019-06-01T14:11:14.624Z,79.40
2019-06-01T14:13:45.295Z,77.30
2019-06-01T14:16:14.910Z,79.90
2019-06-01T14:18:45.581Z,75.60
2019-06-01T14:21:15.114Z,75.30
2019-06-01T14:23:45.808Z,69.10
2019-06-01T14:26:15.484Z,68.80
2019-06-01T14:28:46.004Z,70.00
2019-06-01T14:31:15.755Z,72.10
2019-06-01T14:33:46.516Z,74.60
2019-06-01T14:36:16.119Z,73.30
2019-06-01T14:38:47.696Z,71.70
2019-06-01T14:41:16.760Z,69.30
2019-06-01T14:43:46.916Z,66.40
2019-06-01T14:46:16.525Z,67.20
2019-06-01T14:48:47.316Z,67.10
2019-06-01T14:51:17.012Z,67.10
2019-06-01T14:53:47.489Z,65.80
2019-06-01T14:56:17.113Z,64.90
2019-06-01T14:58:47.797Z,65.40
2019-06-01T15:01:31.443Z,66.80
2019-06-01T15:03:48.707Z,69.40
2019-06-01T15:06:20.730Z,70.90
2019-06-01T15:09:08.741Z,67.70
2019-06-01T15:11:20.548Z,67.60
2019-06-01T15:13:50.348Z,68.60
2019-06-01T15:16:19.994Z,71.50
2019-06-01T15:18:49.507Z,68.00
2019-06-01T15:21:19.110Z,69.20
2019-06-01T15:23:49.785Z,68.40
2019-06-01T15:26:19.439Z,65.50
2019-06-01T15:28:48.826Z,68.20
2019-06-01T15:31:18.280Z,67.70
2019-06-01T15:33:47.722Z,67.60
2019-06-01T15:36:17.115Z,67.00
2019-06-01T15:38:46.602Z,69.50
2019-06-01T15:41:16.050Z,68.80
2019-06-01T15:43:45.693Z,66.70
2019-06-01T15:46:15.535Z,66.60
2019-06-01T15:48:45.128Z,66.60
2019-06-01T15:51:14.630Z,73.00
2019-06-01T15:53:44.086Z,71.40
2019-06-01T15:56:13.502Z,72.00
2019-06-01T15:58:52.257Z,71.10
2019-06-01T16:01:14.197Z,70.10
2019-06-01T16:03:43.565Z,67.40
2019-06-01T16:06:12.932Z,69.00
2019-06-01T16:08:42.329Z,69.30
2019-06-01T16:11:11.694Z,71.60
2019-06-01T16:13:41.123Z,72.50
2019-06-01T16:16:10.473Z,73.10
2019-06-01T16:18:39.937Z,72.90
2019-06-01T16:21:09.421Z,72.90
2019-06-01T16:23:49.551Z,70.00
2019-06-01T16:26:16.194Z,70.70
2019-06-01T16:28:40.978Z,69.70
2019-06-01T16:31:10.433Z,71.40
2019-06-01T16:33:40.887Z,68.80
2019-06-01T16:36:10.268Z,70.40
2019-06-01T16:38:40.621Z,72.50
2019-06-01T16:41:10.096Z,68.90
2019-06-01T16:43:39.445Z,70.70
2019-06-01T16:46:08.962Z,67.60
2019-06-01T16:48:38.409Z,67.10
2019-06-01T16:51:07.816Z,66.50
2019-06-01T16:53:37.220Z,66.80
2019-06-01T16:56:08.619Z,65.10
2019-06-01T16:58:38.113Z,65.90
2019-06-01T17:01:07.541Z,63.20
2019-06-01T17:03:37.991Z,63.90
2019-06-01T17:06:07.391Z,65.10
2019-06-01T17:08:36.758Z,65.50
2019-06-01T17:11:06.926Z,68.60
2019-06-01T17:13:36.494Z,71.20
2019-06-01T17:16:07.180Z,70.90
2019-06-01T17:18:36.757Z,72.60
2019-06-01T17:21:07.491Z,69.30
2019-06-01T17:23:37.288Z,65.50
2019-06-01T17:26:07.607Z,67.80
2019-06-01T17:28:38.066Z,66.40
2019-06-01T17:31:08.443Z,67.50
2019-06-01T17:33:38.346Z,68.00
2019-06-01T17:36:08.941Z,68.80
2019-06-01T17:38:38.662Z,69.30
2019-06-01T17:41:09.294Z,71.30
2019-06-01T17:43:38.920Z,71.90
2019-06-01T17:46:10.024Z,71.10
2019-06-01T17:48:39.922Z,71.00
2019-06-01T17:51:09.531Z,70.60
2019-06-01T17:53:38.910Z,71.90
2019-06-01T17:56:08.499Z,73.30
2019-06-01T17:58:37.961Z,72.80
2019-06-01T18:01:08.175Z,74.70
2019-06-01T18:03:38.179Z,76.10
2019-06-01T18:06:07.936Z,75.30
2019-06-01T18:08:37.491Z,77.60
2019-06-01T18:11:08.106Z,83.00
2019-06-01T18:13:37.943Z,86.60
2019-06-01T18:16:08.275Z,86.50
2019-06-01T18:18:38.019Z,85.00
2019-06-01T18:21:08.419Z,90.00
2019-06-01T18:23:38.106Z,92.30
2019-06-01T18:26:09.100Z,93.70
2019-06-01T18:28:38.766Z,95.90
2019-06-01T18:31:08.767Z,97.00
2019-06-01T18:33:38.389Z,98.20
2019-06-01T18:36:07.879Z,99.30
2019-06-01T18:38:37.484Z,99.70
2019-06-01T18:41:16.103Z,99.90
2019-06-01T18:43:40.188Z,99.90
2019-06-01T18:46:10.165Z,99.90
2019-06-01T18:48:39.889Z,99.90
2019-06-01T18:51:10.444Z,99.90
2019-06-01T18:53:39.940Z,99.90
2019-06-01T18:56:10.151Z,99.90
2019-06-01T18:58:39.874Z,99.90
2019-06-01T19:01:10.696Z,99.90
2019-06-01T19:03:40.223Z,99.90
2019-06-01T19:06:09.712Z,99.90
2019-06-01T19:08:39.152Z,99.90
2019-06-01T19:11:24.681Z,99.90
2019-06-01T19:13:39.775Z,99.90
2019-06-01T19:16:10.103Z,99.90
2019-06-01T19:18:39.866Z,99.90
2019-06-01T19:21:10.597Z,99.90
2019-06-01T19:23:40.116Z,99.90
2019-06-01T19:26:13.071Z,99.90
2019-06-01T19:28:40.899Z,99.90
2019-06-01T19:31:11.203Z,99.90
2019-06-01T19:33:40.944Z,99.90
2019-06-01T19:36:11.083Z,99.90
2019-06-01T19:38:43.001Z,99.90
2019-06-01T19:41:13.435Z,99.90
2019-06-01T19:43:43.225Z,99.90
2019-06-01T19:46:14.008Z,99.90
2019-06-01T19:48:43.837Z,99.90
2019-06-01T19:51:14.569Z,99.90
2019-06-01T19:53:44.183Z,99.90
2019-06-01T19:56:14.914Z,99.90
2019-06-01T19:58:45.647Z,99.90
2019-06-01T20:01:16.227Z,99.90
2019-06-01T20:03:45.938Z,99.90
2019-06-01T20:06:15.410Z,99.90
2019-06-01T20:08:44.979Z,99.90
2019-06-01T20:11:15.120Z,99.90
2019-06-01T20:13:44.753Z,99.90
2019-06-01T20:16:14.621Z,99.90
2019-06-01T20:18:44.245Z,99.90
2019-06-01T20:21:13.900Z,99.90
2019-06-01T20:23:43.383Z,99.90
2019-06-01T20:26:13.254Z,99.90
2019-06-01T20:28:42.828Z,99.90
2019-06-01T20:31:13.631Z,99.90
2019-06-01T20:33:43.233Z,99.90
2019-06-01T20:36:13.997Z,99.90
2019-06-01T20:38:44.231Z,99.90
2019-06-01T20:41:15.124Z,99.90
2019-06-01T20:43:45.065Z,99.90
2019-06-01T20:46:14.706Z,99.90
2019-06-01T20:48:44.257Z,99.90
2019-06-01T20:51:14.710Z,99.90
2019-06-01T20:53:44.310Z,99.90
2019-06-01T20:56:15.276Z,99.90
2019-06-01T20:58:46.141Z,99.90
2019-06-01T21:01:15.679Z,99.90
2019-06-01T21:03:45.291Z,99.90
2019-06-01T21:06:15.817Z,99.90
2019-06-01T21:08:45.475Z,99.90
2019-06-01T21:11:15.829Z,99.90
2019-06-01T21:13:45.524Z,99.90
2019-06-01T21:16:16.101Z,99.90
2019-06-01T21:18:45.757Z,99.90
2019-06-01T21:21:16.328Z,99.90
2019-06-01T21:23:46.096Z,99.90
2019-06-01T21:26:16.784Z,99.90
2019-06-01T21:28:46.646Z,99.90
2019-06-01T21:31:16.921Z,99.90
2019-06-01T21:33:46.586Z,99.90
2019-06-01T21:36:17.335Z,99.90
2019-06-01T21:38:46.890Z,99.90
2019-06-01T21:41:17.486Z,99.90
2019-06-01T21:43:47.959Z,99.90
2019-06-01T21:46:18.131Z,99.90
2019-06-01T21:48:49.622Z,99.90
2019-06-01T21:51:20.009Z,99.90
2019-06-01T21:53:49.406Z,99.90
2019-06-01T21:56:20.686Z,99.90
2019-06-01T21:58:50.487Z,99.90
2019-06-01T22:01:20.671Z,99.90
2019-06-01T22:03:50.356Z,99.90
2019-06-01T22:06:21.568Z,99.90
2019-06-01T22:08:52.770Z,99.90
2019-06-01T22:11:23.577Z,99.90
2019-06-01T22:13:53.347Z,99.90
2019-06-01T22:16:23.807Z,99.90
2019-06-01T22:18:54.318Z,99.90
2019-06-01T22:21:23.969Z,99.90
2019-06-01T22:23:53.418Z,99.90
2019-06-01T22:26:23.957Z,99.90
2019-06-01T22:28:53.529Z,99.90
2019-06-01T22:31:23.076Z,99.90
2019-06-01T22:33:52.569Z,99.90
2019-06-01T22:36:22.599Z,99.90
2019-06-01T22:38:52.215Z,99.90
2019-06-01T22:41:21.850Z,99.90
2019-06-01T22:43:51.439Z,99.90
2019-06-01T22:46:22.313Z,99.90
2019-06-01T22:48:52.168Z,99.90
2019-06-01T22:51:22.938Z,99.90
2019-06-01T22:53:52.667Z,99.90
2019-06-01T22:56:23.214Z,99.90
2019-06-01T22:58:52.833Z,99.90
2019-06-01T23:01:22.943Z,99.90
2019-06-01T23:03:52.540Z,99.90
2019-06-01T23:06:22.895Z,99.90
2019-06-01T23:08:52.811Z,99.90
2019-06-01T23:11:23.218Z,99.90
2019-06-01T23:13:53.955Z,99.90
2019-06-01T23:16:23.692Z,99.90
2019-06-01T23:18:53.264Z,99.90
2019-06-01T23:21:23.737Z,99.90
2019-06-01T23:23:53.346Z,99.90
2019-06-01T23:26:24.056Z,99.90
2019-06-01T23:28:53.668Z,99.90
2019-06-01T23:31:24.277Z,99.90
2019-06-01T23:33:55.307Z,99.90
2019-06-01T23:36:24.815Z,99.90
2019-06-01T23:38:54.215Z,99.90
2019-06-01T23:41:24.487Z,99.90
2019-06-01T23:44:10.437Z,99.90
2019-06-01T23:46:25.343Z,99.90
2019-06-01T23:48:54.784Z,99.90
2019-06-01T23:51:25.336Z,99.90
2019-06-01T23:53:54.909Z,99.90
2019-06-01T23:56:25.557Z,99.90
2019-06-01T23:58:56.289Z,99.90
